createdAt,value
2017-04-13T00:01:00.455Z,97.17
2017-04-13T00:02:09.680Z,96.6
2017-04-13T00:03:18.588Z,95.89
2017-04-13T00:04:27.805Z,96.79
2017-04-13T00:05:37.030Z,96.31
2017-04-13T00:06:46.243Z,97.17
2017-04-13T00:07:54.831Z,96.31
2017-04-13T00:09:04.390Z,96.98
2017-04-13T00:10:13.701Z,96.31
2017-04-13T00:11:22.605Z,96.03
2017-04-13T00:12:31.505Z,96.12
2017-04-13T00:13:40.416Z,95.56
2017-04-13T00:14:49.002Z,95.17
2017-04-13T00:15:57.592Z,95.46
2017-04-13T00:17:06.175Z,96.12
2017-04-13T00:18:14.766Z,96.12
2017-04-13T00:19:23.669Z,95.56
2017-04-13T00:20:32.294Z,94.89
2017-04-13T00:21:40.883Z,95.08
2017-04-13T00:22:49.469Z,95.75
2017-04-13T00:23:58.694Z,95.17
2017-04-13T00:25:08.241Z,95.46
2017-04-13T00:26:17.518Z,96.6
2017-04-13T00:27:26.425Z,96.12
2017-04-13T00:28:35.973Z,96.31
2017-04-13T00:29:45.254Z,96.51
2017-04-13T00:30:54.378Z,96.7
2017-04-13T00:32:02.974Z,96.41
2017-04-13T00:33:11.872Z,95.65
2017-04-13T00:34:21.728Z,95.84
2017-04-13T00:35:30.638Z,95.94
2017-04-13T00:36:39.544Z,95.94
2017-04-13T00:37:48.135Z,97.27
2017-04-13T00:38:57.038Z,96.6
2017-04-13T00:40:06.257Z,97.27
2017-04-13T00:41:15.486Z,97.08
2017-04-13T00:42:25.035Z,97.17
2017-04-13T00:43:33.940Z,97.27
2017-04-13T00:44:43.489Z,97.27
2017-04-13T00:45:52.719Z,96.98
2017-04-13T00:47:02.264Z,97.93
2017-04-13T00:48:11.214Z,97.27
2017-04-13T00:49:20.451Z,97.55
2017-04-13T00:50:29.360Z,97.36
2017-04-13T00:51:38.280Z,98.03
2017-04-13T00:52:47.431Z,97.46
2017-04-13T00:53:56.024Z,98.88
2017-04-13T00:55:04.995Z,98.79
2017-04-13T00:56:13.585Z,98.6
2017-04-13T00:57:22.499Z,98.41
2017-04-13T00:58:31.396Z,98.5
2017-04-13T00:59:40.710Z,98.98
2017-04-13T01:00:50.073Z,98.69
2017-04-13T01:01:58.667Z,98.69
2017-04-13T01:03:07.261Z,98.98
2017-04-13T01:04:16.173Z,98.79
2017-04-13T01:05:24.762Z,98.6
2017-04-13T01:06:33.984Z,99.17
2017-04-13T01:07:42.885Z,99.46
2017-04-13T01:08:51.468Z,99.55
2017-04-13T01:10:00.687Z,99.55
2017-04-13T01:11:09.600Z,99.99
2017-04-13T01:12:18.649Z,99.65
2017-04-13T01:13:27.885Z,99.84
2017-04-13T01:14:36.793Z,99.74
2017-04-13T01:15:45.390Z,99.46
2017-04-13T01:16:54.617Z,99.55
2017-04-13T01:18:04.165Z,99.55
2017-04-13T01:19:13.114Z,99.93
2017-04-13T01:20:22.022Z,99.84
2017-04-13T01:21:30.926Z,99.99
2017-04-13T01:22:40.503Z,99.46
2017-04-13T01:23:49.418Z,99.99
2017-04-13T01:24:58.638Z,99.99
2017-04-13T01:26:07.864Z,99.93
2017-04-13T01:27:17.095Z,99.46
2017-04-13T01:28:26.006Z,98.6
2017-04-13T01:29:35.229Z,98.74
2017-04-13T01:30:44.470Z,99.46
2017-04-13T01:31:53.692Z,99.6
2017-04-13T01:33:02.274Z,99.46
2017-04-13T01:34:11.509Z,99.41
2017-04-13T01:35:20.417Z,99.6
2017-04-13T01:36:29.971Z,98.83
2017-04-13T01:37:39.208Z,98.65
2017-04-13T01:38:48.435Z,98.83
2017-04-13T01:39:57.659Z,98.46
2017-04-13T01:41:06.563Z,98.55
2017-04-13T01:42:15.828Z,97.79
2017-04-13T01:43:24.413Z,97.31
2017-04-13T01:44:33.317Z,96.26
2017-04-13T01:45:41.924Z,95.7
2017-04-13T01:46:51.149Z,95.6
2017-04-13T01:48:00.698Z,95.89
2017-04-13T01:49:09.283Z,95.41
2017-04-13T01:50:18.194Z,95.03
2017-04-13T01:51:27.412Z,95.41
2017-04-13T01:52:36.641Z,95.7
2017-04-13T01:53:45.555Z,96.08
2017-04-13T01:54:54.182Z,95.98
2017-04-13T01:56:03.410Z,95.22
2017-04-13T01:57:12.957Z,96.08
2017-04-13T01:58:21.857Z,96.55
2017-04-13T01:59:31.083Z,96.26
2017-04-13T02:00:40.304Z,96.08
2017-04-13T02:01:49.203Z,96.46
2017-04-13T02:02:57.786Z,95.79
2017-04-13T02:04:07.324Z,96.08
2017-04-13T02:05:16.337Z,95.41
2017-04-13T02:06:25.256Z,95.7
2017-04-13T02:07:33.843Z,95.7
2017-04-13T02:08:43.064Z,95.7
2017-04-13T02:09:52.297Z,96.65
2017-04-13T02:11:01.515Z,96.17
2017-04-13T02:12:10.743Z,95.51
2017-04-13T02:13:19.328Z,95.89
2017-04-13T02:14:27.924Z,96.36
2017-04-13T02:15:37.162Z,95.51
2017-04-13T02:16:45.757Z,95.32
2017-04-13T02:17:55.603Z,95.32
2017-04-13T02:19:04.515Z,95.79
2017-04-13T02:20:13.430Z,95.6
2017-04-13T02:21:22.024Z,95.98
2017-04-13T02:22:30.931Z,95.6
2017-04-13T02:23:40.174Z,95.32
2017-04-13T02:24:49.079Z,95.03
2017-04-13T02:25:57.989Z,95.03
2017-04-13T02:27:06.907Z,95.12
2017-04-13T02:28:15.827Z,94.74
2017-04-13T02:29:24.746Z,94.56
2017-04-13T02:30:33.966Z,95.32
2017-04-13T02:31:43.195Z,95.03
2017-04-13T02:32:52.740Z,95.89
2017-04-13T02:34:01.329Z,95.79
2017-04-13T02:35:10.234Z,96.08
2017-04-13T02:36:18.832Z,96.46
2017-04-13T02:37:28.062Z,96.36
2017-04-13T02:38:36.959Z,95.51
2017-04-13T02:39:46.179Z,95.03
2017-04-13T02:40:55.127Z,94.74
2017-04-13T02:42:04.044Z,95.03
2017-04-13T02:43:12.951Z,94.74
2017-04-13T02:44:22.506Z,95.89
2017-04-13T02:45:32.082Z,96.55
2017-04-13T02:46:40.988Z,96.08
2017-04-13T02:47:49.575Z,95.98
2017-04-13T02:48:58.813Z,95.08
2017-04-13T02:50:07.745Z,94.7
2017-04-13T02:51:16.644Z,94.51
2017-04-13T02:52:25.852Z,94.03
2017-04-13T02:53:34.756Z,94.6
2017-04-13T02:54:43.981Z,94.42
2017-04-13T02:55:53.210Z,94.22
2017-04-13T02:57:02.431Z,94.22
2017-04-13T02:58:11.338Z,93.94
2017-04-13T02:59:19.923Z,94.42
2017-04-13T03:00:29.147Z,93.94
2017-04-13T03:01:38.683Z,94.32
2017-04-13T03:02:47.582Z,94.22
2017-04-13T03:03:56.487Z,93.18
2017-04-13T03:05:06.020Z,92.89
2017-04-13T03:06:14.939Z,92.22
2017-04-13T03:07:24.168Z,92.89
2017-04-13T03:08:32.759Z,92.75
2017-04-13T03:09:41.664Z,92.32
2017-04-13T03:10:50.882Z,92.27
2017-04-13T03:11:59.787Z,92.32
2017-04-13T03:13:09.001Z,92.27
2017-04-13T03:14:17.903Z,92.75
2017-04-13T03:15:27.135Z,93.6
2017-04-13T03:16:35.733Z,93.98
2017-04-13T03:17:44.641Z,93.79
2017-04-13T03:18:53.885Z,93.89
2017-04-13T03:20:02.489Z,94.27
2017-04-13T03:21:11.723Z,94.65
2017-04-13T03:22:21.255Z,94.56
2017-04-13T03:23:30.474Z,94.65
2017-04-13T03:24:39.702Z,94.56
2017-04-13T03:25:48.285Z,93.41
2017-04-13T03:26:57.516Z,92.94
2017-04-13T03:28:06.103Z,93.41
2017-04-13T03:29:15.011Z,92.75
2017-04-13T03:30:24.232Z,92.36
2017-04-13T03:31:32.825Z,92.84
2017-04-13T03:32:41.727Z,92.84
2017-04-13T03:33:50.632Z,92.75
2017-04-13T03:34:59.900Z,93.51
2017-04-13T03:36:09.122Z,93.23
2017-04-13T03:37:18.346Z,92.94
2017-04-13T03:38:27.887Z,93.32
2017-04-13T03:39:37.430Z,93.23
2017-04-13T03:40:46.653Z,93.79
2017-04-13T03:41:55.300Z,93.23
2017-04-13T03:43:04.259Z,93.32
2017-04-13T03:44:13.323Z,93.6
2017-04-13T03:45:22.229Z,93.41
2017-04-13T03:46:31.463Z,92.84
2017-04-13T03:47:40.051Z,93.32
2017-04-13T03:48:49.277Z,93.23
2017-04-13T03:49:58.849Z,93.23
2017-04-13T03:51:07.790Z,93.7
2017-04-13T03:52:16.389Z,93.32
2017-04-13T03:53:24.980Z,93.23
2017-04-13T03:54:34.348Z,93.23
2017-04-13T03:55:42.934Z,93.6
2017-04-13T03:56:51.840Z,93.04
2017-04-13T03:58:01.384Z,93.32
2017-04-13T03:59:10.929Z,93.6
2017-04-13T04:00:19.848Z,93.79
2017-04-13T04:01:28.758Z,93.7
2017-04-13T04:02:37.977Z,93.7
2017-04-13T04:03:47.560Z,93.79
2017-04-13T04:04:56.491Z,94.27
2017-04-13T04:06:05.395Z,94.27
2017-04-13T04:07:13.985Z,94.08
2017-04-13T04:08:22.888Z,94.37
2017-04-13T04:09:32.109Z,94.46
2017-04-13T04:10:41.340Z,94.18
2017-04-13T04:11:50.881Z,94.08
2017-04-13T04:12:59.794Z,94.08
2017-04-13T04:14:08.391Z,94.74
2017-04-13T04:15:16.979Z,94.37
2017-04-13T04:16:25.886Z,93.89
2017-04-13T04:17:35.110Z,94.18
2017-04-13T04:18:43.698Z,94.74
2017-04-13T04:19:52.293Z,94.27
2017-04-13T04:21:02.193Z,95.22
2017-04-13T04:22:11.103Z,95.7
2017-04-13T04:23:21.980Z,95.7
2017-04-13T04:24:31.523Z,95.51
2017-04-13T04:25:41.106Z,96.36
2017-04-13T04:26:50.324Z,96.46
2017-04-13T04:27:59.537Z,96.74
2017-04-13T04:29:08.790Z,97.13
2017-04-13T04:30:18.028Z,97.22
2017-04-13T04:31:27.262Z,97.13
2017-04-13T04:32:36.169Z,97.22
2017-04-13T04:33:45.080Z,98.08
2017-04-13T04:34:54.304Z,97.98
2017-04-13T04:36:03.528Z,98.36
2017-04-13T04:37:12.431Z,98.55
2017-04-13T04:38:21.974Z,98.36
2017-04-13T04:39:30.563Z,98.46
2017-04-13T04:40:39.154Z,98.17
2017-04-13T04:41:47.741Z,97.69
2017-04-13T04:42:56.957Z,98.17
2017-04-13T04:44:06.506Z,98.08
2017-04-13T04:45:15.411Z,97.98
2017-04-13T04:46:24.641Z,97.88
2017-04-13T04:47:33.876Z,97.69
2017-04-13T04:48:43.353Z,97.88
2017-04-13T04:49:52.253Z,97.79
2017-04-13T04:51:01.478Z,98.65
2017-04-13T04:52:10.696Z,98.36
2017-04-13T04:53:20.555Z,98.55
2017-04-13T04:54:30.105Z,98.08
2017-04-13T04:55:39.326Z,97.69
2017-04-13T04:56:47.912Z,97.88
2017-04-13T04:57:56.823Z,98.08
2017-04-13T04:59:06.360Z,97.79
2017-04-13T05:00:15.576Z,97.98
2017-04-13T05:01:24.486Z,97.79
2017-04-13T05:02:33.707Z,97.98
2017-04-13T05:03:42.930Z,97.88
2017-04-13T05:04:51.508Z,98.17
2017-04-13T05:06:00.734Z,97.88
2017-04-13T05:07:09.325Z,98.36
2017-04-13T05:08:18.229Z,98.46
2017-04-13T05:09:27.774Z,98.93
2017-04-13T05:10:36.679Z,98.93
2017-04-13T05:11:45.590Z,99.22
2017-04-13T05:12:54.499Z,99.02
2017-04-13T05:14:03.402Z,99.41
2017-04-13T05:15:11.986Z,99.79
2017-04-13T05:16:20.894Z,99.88
2017-04-13T05:17:29.794Z,99.88
2017-04-13T05:18:38.691Z,99.6
2017-04-13T05:19:47.921Z,99.99
2017-04-13T05:20:56.518Z,99.99
2017-04-13T05:22:05.747Z,99.98
2017-04-13T05:23:14.968Z,99.99
2017-04-13T05:24:23.552Z,99.99
2017-04-13T05:25:32.769Z,99.99
2017-04-13T05:26:41.359Z,99.99
2017-04-13T05:27:50.583Z,99.99
2017-04-13T05:28:59.487Z,99.99
2017-04-13T05:30:08.076Z,99.99
2017-04-13T05:31:17.300Z,99.99
2017-04-13T05:32:25.887Z,99.99
2017-04-13T05:33:34.469Z,99.99
2017-04-13T05:34:43.686Z,99.99
2017-04-13T05:35:52.587Z,99.99
2017-04-13T05:37:02.133Z,99.99
2017-04-13T05:38:11.031Z,99.99
2017-04-13T05:39:19.622Z,99.99
2017-04-13T05:40:28.212Z,99.99
2017-04-13T05:41:37.695Z,99.99
2017-04-13T05:42:46.917Z,99.99
2017-04-13T05:43:55.824Z,99.99
2017-04-13T05:45:04.736Z,99.99
2017-04-13T05:46:13.644Z,99.99
2017-04-13T05:47:22.235Z,99.99
2017-04-13T05:48:31.502Z,99.99
2017-04-13T05:49:41.057Z,99.99
2017-04-13T05:50:50.284Z,99.99
2017-04-13T05:51:59.130Z,99.99
2017-04-13T05:53:08.043Z,99.99
2017-04-13T05:54:17.295Z,99.99
2017-04-13T05:55:26.524Z,99.99
2017-04-13T05:56:35.747Z,99.99
2017-04-13T05:57:44.658Z,99.99
2017-04-13T05:58:53.287Z,99.99
2017-04-13T06:00:01.875Z,99.99
2017-04-13T06:01:11.097Z,99.99
2017-04-13T06:02:19.731Z,99.99
2017-04-13T06:03:29.208Z,99.99
2017-04-13T06:04:38.438Z,99.99
2017-04-13T06:05:47.656Z,99.99
2017-04-13T06:06:56.568Z,99.99
2017-04-13T06:08:05.481Z,99.99
2017-04-13T06:09:14.381Z,99.99
2017-04-13T06:10:23.607Z,99.99
2017-04-13T06:11:32.508Z,99.99
2017-04-13T06:12:41.728Z,99.99
2017-04-13T06:13:50.644Z,99.99
2017-04-13T06:15:00.071Z,99.99
2017-04-13T06:16:09.296Z,99.99
2017-04-13T06:17:18.206Z,99.99
2017-04-13T06:18:27.430Z,99.99
2017-04-13T06:19:36.653Z,99.99
2017-04-13T06:20:45.608Z,99.99
2017-04-13T06:21:54.511Z,99.99
2017-04-13T06:23:03.439Z,99.99
2017-04-13T06:24:12.355Z,99.99
2017-04-13T06:25:20.948Z,99.99
2017-04-13T06:26:29.861Z,99.99
2017-04-13T06:27:39.087Z,99.99
2017-04-13T06:28:48.425Z,99.99
2017-04-13T06:29:57.055Z,99.99
2017-04-13T06:31:05.956Z,99.99
2017-04-13T06:32:15.179Z,99.99
2017-04-13T06:33:24.085Z,99.99
2017-04-13T06:34:33.070Z,99.99
2017-04-13T06:35:41.996Z,99.99
2017-04-13T06:36:51.224Z,99.99
2017-04-13T06:38:00.157Z,99.99
2017-04-13T06:39:10.016Z,99.99
2017-04-13T06:40:19.241Z,99.99
2017-04-13T06:41:28.472Z,99.99
2017-04-13T06:42:37.700Z,99.99
2017-04-13T06:43:46.608Z,99.99
2017-04-13T06:44:55.831Z,99.99
2017-04-13T06:46:04.735Z,99.99
2017-04-13T06:47:13.959Z,99.99
2017-04-13T06:48:23.185Z,99.99
2017-04-13T06:49:33.924Z,99.99
2017-04-13T06:50:43.197Z,99.99
2017-04-13T06:51:52.101Z,99.99
2017-04-13T06:53:00.723Z,99.99
2017-04-13T06:54:09.957Z,99.99
2017-04-13T06:55:19.498Z,99.99
2017-04-13T06:56:28.402Z,99.99
2017-04-13T06:57:37.305Z,99.99
2017-04-13T06:58:45.893Z,99.99
2017-04-13T06:59:54.805Z,99.99
2017-04-13T07:01:03.725Z,99.99
2017-04-13T07:02:12.949Z,99.99
2017-04-13T07:03:21.857Z,99.99
2017-04-13T07:04:30.780Z,99.99
2017-04-13T07:05:39.376Z,99.99
2017-04-13T07:06:48.285Z,99.99
2017-04-13T07:07:57.505Z,99.99
2017-04-13T07:09:06.148Z,99.99
2017-04-13T07:10:15.384Z,99.99
2017-04-13T07:11:24.299Z,99.99
2017-04-13T07:12:32.888Z,99.99
2017-04-13T07:13:42.751Z,99.99
2017-04-13T07:14:52.291Z,99.99
2017-04-13T07:16:01.197Z,99.99
2017-04-13T07:17:10.115Z,99.99
2017-04-13T07:18:19.020Z,99.99
2017-04-13T07:19:28.400Z,99.99
2017-04-13T07:20:37.625Z,99.99
2017-04-13T07:21:46.524Z,99.99
2017-04-13T07:22:55.753Z,99.99
2017-04-13T07:24:04.339Z,99.99
2017-04-13T07:25:13.580Z,99.99
2017-04-13T07:26:23.141Z,99.99
2017-04-13T07:27:32.061Z,99.99
2017-04-13T07:28:40.978Z,99.99
2017-04-13T07:29:49.572Z,99.99
2017-04-13T07:30:58.799Z,99.99
2017-04-13T07:32:08.021Z,99.99
2017-04-13T07:33:17.251Z,99.99
2017-04-13T07:34:25.840Z,99.99
2017-04-13T07:35:35.379Z,99.99
2017-04-13T07:36:44.605Z,99.99
2017-04-13T07:37:53.831Z,99.99
2017-04-13T07:39:03.367Z,99.99
2017-04-13T07:40:12.957Z,99.99
2017-04-13T07:41:22.181Z,99.99
2017-04-13T07:42:31.090Z,99.99
2017-04-13T07:43:40.654Z,99.99
2017-04-13T07:44:49.884Z,99.99
2017-04-13T07:45:59.114Z,99.99
2017-04-13T07:47:08.027Z,99.99
2017-04-13T07:48:16.713Z,99.99
2017-04-13T07:49:25.756Z,99.99
2017-04-13T07:50:35.315Z,99.99
2017-04-13T07:51:44.547Z,99.99
2017-04-13T07:52:53.144Z,99.99
2017-04-13T07:54:02.050Z,99.99
2017-04-13T07:55:10.653Z,99.99
2017-04-13T07:56:19.606Z,99.99
2017-04-13T07:57:28.514Z,99.99
2017-04-13T07:58:37.422Z,99.99
2017-04-13T07:59:46.026Z,99.99
2017-04-13T08:00:54.943Z,99.99
2017-04-13T08:02:04.491Z,99.99
2017-04-13T08:03:13.589Z,99.99
2017-04-13T08:04:22.826Z,99.99
2017-04-13T08:05:32.043Z,99.99
2017-04-13T08:06:41.359Z,99.99
2017-04-13T08:07:50.912Z,99.99
2017-04-13T08:10:38.946Z,99.99
2017-04-13T08:11:50.243Z,99.99
2017-04-13T08:12:59.516Z,99.99
2017-04-13T08:14:08.569Z,99.99
2017-04-13T08:15:17.798Z,99.99
2017-04-13T08:16:27.045Z,99.99
2017-04-13T08:17:35.954Z,99.99
2017-04-13T08:18:45.184Z,99.99
2017-04-13T08:19:54.409Z,99.99
2017-04-13T08:21:03.440Z,99.99
2017-04-13T08:22:12.696Z,99.99
2017-04-13T08:23:21.498Z,99.99
2017-04-13T08:24:30.088Z,99.99
2017-04-13T08:25:38.991Z,99.99
2017-04-13T08:26:47.593Z,99.99
2017-04-13T08:27:56.855Z,99.99
2017-04-13T08:29:06.097Z,99.99
2017-04-13T08:30:15.336Z,99.99
2017-04-13T08:31:23.980Z,99.99
2017-04-13T08:32:32.623Z,99.99
2017-04-13T08:33:42.175Z,99.99
2017-04-13T08:34:51.712Z,99.99
2017-04-13T08:36:00.619Z,99.99
2017-04-13T08:37:09.862Z,99.99
2017-04-13T08:38:18.776Z,99.99
2017-04-13T08:39:28.005Z,99.99
2017-04-13T08:40:37.333Z,99.99
2017-04-13T08:41:45.922Z,99.99
2017-04-13T08:42:54.831Z,99.99
2017-04-13T08:44:03.574Z,99.99
2017-04-13T08:45:12.801Z,99.99
2017-04-13T08:46:22.031Z,99.99
2017-04-13T08:47:30.944Z,99.99
2017-04-13T08:48:39.534Z,99.99
2017-04-13T08:49:48.453Z,99.99
2017-04-13T08:50:57.708Z,99.99
2017-04-13T08:52:06.939Z,99.99
2017-04-13T08:53:16.183Z,99.99
2017-04-13T08:54:25.097Z,99.99
2017-04-13T08:55:34.331Z,99.99
2017-04-13T08:56:43.569Z,99.99
2017-04-13T08:57:52.705Z,99.99
2017-04-13T08:59:02.354Z,99.99
2017-04-13T09:00:11.264Z,99.99
2017-04-13T09:01:20.488Z,99.99
2017-04-13T09:02:29.393Z,99.99
2017-04-13T09:03:39.178Z,99.71
2017-04-13T09:04:48.413Z,98.57
2017-04-13T09:05:57.328Z,96.84
2017-04-13T09:07:06.558Z,96.08
2017-04-13T09:08:15.139Z,97.23
2017-04-13T09:09:24.373Z,97.61
2017-04-13T09:10:33.614Z,97.61
2017-04-13T09:11:42.844Z,97.9
2017-04-13T09:12:52.153Z,97.04
2017-04-13T09:14:01.383Z,95.32
2017-04-13T09:15:10.328Z,94.07
2017-04-13T09:16:18.919Z,92.64
2017-04-13T09:17:28.465Z,93.6
2017-04-13T09:18:37.757Z,92.83
2017-04-13T09:19:46.989Z,94.84
2017-04-13T09:20:55.586Z,92.83
2017-04-13T09:22:04.508Z,91.68
2017-04-13T09:23:13.797Z,91.2
2017-04-13T09:24:22.707Z,91.39
2017-04-13T09:25:32.264Z,92.54
2017-04-13T09:26:41.498Z,93.6
2017-04-13T09:27:50.743Z,92.78
2017-04-13T09:28:59.694Z,92.02
2017-04-13T09:30:09.602Z,90.39
2017-04-13T09:31:18.560Z,90.1
2017-04-13T09:32:27.296Z,91.83
2017-04-13T09:33:36.202Z,92.69
2017-04-13T09:34:45.435Z,93.5
2017-04-13T09:35:54.326Z,93.35
2017-04-13T09:37:03.873Z,91.3
2017-04-13T09:38:12.467Z,91.97
2017-04-13T09:39:21.695Z,91.68
2017-04-13T09:40:30.410Z,92.74
2017-04-13T09:41:39.318Z,92.16
2017-04-13T09:42:48.547Z,92.59
2017-04-13T09:43:58.092Z,92.97
2017-04-13T09:45:06.725Z,92.88
2017-04-13T09:46:15.320Z,91.83
2017-04-13T09:47:23.912Z,91.54
2017-04-13T09:48:32.831Z,92.02
2017-04-13T09:49:41.752Z,93.93
2017-04-13T09:50:50.690Z,94.79
2017-04-13T09:51:59.602Z,96.8
2017-04-13T09:53:08.518Z,97.37
2017-04-13T09:54:17.743Z,97.56
2017-04-13T09:55:27.305Z,96.51
2017-04-13T09:56:36.541Z,94.98
2017-04-13T09:57:45.761Z,94.89
2017-04-13T09:58:55.355Z,94.89
2017-04-13T10:00:04.392Z,94.41
2017-04-13T10:01:14.898Z,93.45
2017-04-13T10:02:23.490Z,92.11
2017-04-13T10:03:32.409Z,92.69
2017-04-13T10:04:41.005Z,90.88
2017-04-13T10:05:50.563Z,92.3
2017-04-13T10:07:00.256Z,92.79
2017-04-13T10:08:09.803Z,93.26
2017-04-13T10:09:18.403Z,92.02
2017-04-13T10:10:27.011Z,90.25
2017-04-13T10:11:35.597Z,90.92
2017-04-13T10:12:44.839Z,90.63
2017-04-13T10:13:53.754Z,89.29
2017-04-13T10:15:02.995Z,87.95
2017-04-13T10:16:11.965Z,87
2017-04-13T10:17:20.931Z,87
2017-04-13T10:18:30.167Z,86.23
2017-04-13T10:19:38.805Z,85.38
2017-04-13T10:20:47.713Z,84.99
2017-04-13T10:21:56.625Z,86.33
2017-04-13T10:23:05.536Z,87.95
2017-04-13T10:24:14.454Z,88.91
2017-04-13T10:25:23.678Z,87.38
2017-04-13T10:26:33.090Z,85.66
2017-04-13T10:27:42.548Z,86
2017-04-13T10:28:52.141Z,86.47
2017-04-13T10:30:01.399Z,87.53
2017-04-13T10:31:09.993Z,86.1
2017-04-13T10:32:19.217Z,87.72
2017-04-13T10:33:28.587Z,88.1
2017-04-13T10:34:37.181Z,87.62
2017-04-13T10:35:46.089Z,88.44
2017-04-13T10:36:55.122Z,88.01
2017-04-13T10:38:03.831Z,88.25
2017-04-13T10:39:13.064Z,87.58
2017-04-13T10:40:22.003Z,87.58
2017-04-13T10:41:30.942Z,89.11
2017-04-13T10:42:40.481Z,90.25
2017-04-13T10:43:49.703Z,87.39
2017-04-13T10:44:59.245Z,86.82
2017-04-13T10:46:08.477Z,87.01
2017-04-13T10:47:17.067Z,88.15
2017-04-13T10:48:26.409Z,88.44
2017-04-13T10:49:35.643Z,88.48
2017-04-13T10:50:44.639Z,86.67
2017-04-13T10:51:53.235Z,85.05
2017-04-13T10:53:02.548Z,85.62
2017-04-13T10:54:11.318Z,85.52
2017-04-13T10:55:21.166Z,84.89
2017-04-13T10:56:30.707Z,84.23
2017-04-13T10:57:39.958Z,84.23
2017-04-13T10:58:48.879Z,83.94
2017-04-13T10:59:57.818Z,83.94
2017-04-13T11:01:07.354Z,84.36
2017-04-13T11:02:16.893Z,84.46
2017-04-13T11:03:26.327Z,82.4
2017-04-13T11:04:35.191Z,82.59
2017-04-13T11:05:43.791Z,80.38
2017-04-13T11:06:52.701Z,78.42
2017-04-13T11:08:01.298Z,78.42
2017-04-13T11:09:10.893Z,77.36
2017-04-13T11:10:20.444Z,76.79
2017-04-13T11:11:29.995Z,75.26
2017-04-13T11:12:39.081Z,73.86
2017-04-13T11:13:48.137Z,74.3
2017-04-13T11:14:56.733Z,76.6
2017-04-13T11:16:05.974Z,76.89
2017-04-13T11:17:15.489Z,76.21
2017-04-13T11:18:24.079Z,76.31
2017-04-13T11:19:33.309Z,77.13
2017-04-13T11:20:42.787Z,76.23
2017-04-13T11:21:52.339Z,75.47
2017-04-13T11:23:01.039Z,76.57
2017-04-13T11:24:10.105Z,76.48
2017-04-13T11:25:19.172Z,75.24
2017-04-13T11:26:28.750Z,76.39
2017-04-13T11:27:38.095Z,77.44
2017-04-13T11:28:47.226Z,77.44
2017-04-13T11:29:56.706Z,76.48
2017-04-13T11:31:06.475Z,76.39
2017-04-13T11:32:15.707Z,76.29
2017-04-13T11:33:24.847Z,76.14
2017-04-13T11:34:34.321Z,76.71
2017-04-13T11:35:43.823Z,76.33
2017-04-13T11:36:53.676Z,75.09
2017-04-13T11:38:04.219Z,74.99
2017-04-13T11:39:14.597Z,74.99
2017-04-13T11:40:23.860Z,74.26
2017-04-13T11:41:32.733Z,75.22
2017-04-13T11:42:41.818Z,73.59
2017-04-13T11:43:51.173Z,73.59
2017-04-13T11:45:00.221Z,73.97
2017-04-13T11:46:10.080Z,72.77
2017-04-13T11:47:19.554Z,72.67
2017-04-13T11:48:29.228Z,72.77
2017-04-13T11:49:38.775Z,72.67
2017-04-13T11:50:48.845Z,72.77
2017-04-13T11:51:58.098Z,73.24
2017-04-13T11:53:06.810Z,72.83
2017-04-13T11:54:15.599Z,72.44
2017-04-13T11:55:24.624Z,72.73
2017-04-13T11:56:33.972Z,72.54
2017-04-13T11:57:43.639Z,72.54
2017-04-13T11:58:53.074Z,73.59
2017-04-13T12:00:02.086Z,73.69
2017-04-13T12:01:11.630Z,72.83
2017-04-13T12:02:20.553Z,72.16
2017-04-13T12:03:30.227Z,72.54
2017-04-13T12:04:39.864Z,71.97
2017-04-13T12:05:49.203Z,71.42
2017-04-13T12:06:58.192Z,71.81
2017-04-13T12:08:06.822Z,72.48
2017-04-13T12:09:15.424Z,70.95
2017-04-13T12:10:24.601Z,71.81
2017-04-13T12:11:34.162Z,70.85
2017-04-13T12:12:43.326Z,70.47
2017-04-13T12:13:52.243Z,69.42
2017-04-13T12:15:01.981Z,69.6
2017-04-13T12:16:11.222Z,70.37
2017-04-13T12:17:19.854Z,70.09
2017-04-13T12:18:29.756Z,70.37
2017-04-13T12:19:39.355Z,70.37
2017-04-13T12:20:48.279Z,71.04
2017-04-13T12:21:56.903Z,72
2017-04-13T12:23:06.011Z,71.81
2017-04-13T12:24:15.282Z,72.58
2017-04-13T12:25:24.249Z,71.42
2017-04-13T12:26:33.874Z,71.52
2017-04-13T12:27:42.606Z,72.03
2017-04-13T12:28:52.710Z,70.6
2017-04-13T12:30:01.862Z,71.27
2017-04-13T12:31:10.850Z,70.98
2017-04-13T12:32:20.136Z,70.79
2017-04-13T12:33:29.732Z,71.17
2017-04-13T12:34:38.388Z,70.18
2017-04-13T12:35:47.784Z,70.09
2017-04-13T12:36:56.694Z,69.42
2017-04-13T12:38:05.282Z,68.65
2017-04-13T12:39:14.513Z,68.27
2017-04-13T12:40:23.740Z,69.03
2017-04-13T12:41:32.660Z,69.6
2017-04-13T12:42:41.938Z,69.6
2017-04-13T12:43:51.069Z,69.7
2017-04-13T12:45:00.305Z,70.09
2017-04-13T12:46:09.876Z,70.66
2017-04-13T12:47:18.786Z,70.76
2017-04-13T12:48:28.013Z,70.37
2017-04-13T12:49:36.963Z,70.28
2017-04-13T12:50:45.654Z,70.34
2017-04-13T12:51:54.274Z,70.15
2017-04-13T12:53:03.510Z,70.34
2017-04-13T12:54:13.255Z,70.53
2017-04-13T12:55:22.166Z,71.2
2017-04-13T12:56:31.088Z,71.48
2017-04-13T12:57:40.010Z,69.95
2017-04-13T12:58:49.570Z,70.34
2017-04-13T12:59:58.818Z,70.34
2017-04-13T13:01:08.050Z,70.91
2017-04-13T13:02:17.166Z,70.62
2017-04-13T13:03:26.169Z,69.86
2017-04-13T13:04:35.057Z,70.43
2017-04-13T13:05:44.311Z,70.28
2017-04-13T13:06:53.244Z,70.37
2017-04-13T13:08:02.290Z,70.85
2017-04-13T13:09:11.527Z,71.91
2017-04-13T13:10:20.128Z,70.66
2017-04-13T13:11:29.822Z,71.04
2017-04-13T13:12:38.641Z,71.14
2017-04-13T13:13:47.906Z,69.42
2017-04-13T13:14:57.206Z,69.51
2017-04-13T13:16:06.116Z,69.7
2017-04-13T13:17:15.031Z,70.47
2017-04-13T13:18:24.134Z,70.76
2017-04-13T13:19:33.746Z,71.52
2017-04-13T13:20:42.671Z,70.18
2017-04-13T13:21:51.913Z,70.85
2017-04-13T13:23:00.723Z,71.52
2017-04-13T13:24:09.690Z,72.19
2017-04-13T13:25:22.053Z,71.52
2017-04-13T13:26:31.543Z,71.71
2017-04-13T13:27:40.481Z,71.81
2017-04-13T13:28:49.401Z,70.95
2017-04-13T13:29:58.334Z,71.23
2017-04-13T13:31:07.274Z,71.52
2017-04-13T13:32:16.821Z,71.04
2017-04-13T13:33:26.054Z,70.56
2017-04-13T13:34:34.981Z,69.99
2017-04-13T13:35:43.923Z,69.51
2017-04-13T13:36:53.159Z,69.35
2017-04-13T13:38:02.092Z,69.54
2017-04-13T13:39:11.327Z,69.35
2017-04-13T13:40:20.248Z,69.54
2017-04-13T13:41:29.635Z,68.59
2017-04-13T13:42:38.276Z,69.17
2017-04-13T13:43:47.728Z,69.45
2017-04-13T13:44:56.475Z,68.59
2017-04-13T13:46:05.393Z,67.38
2017-04-13T13:47:14.300Z,67.38
2017-04-13T13:48:23.531Z,66.38
2017-04-13T13:49:32.757Z,66.67
2017-04-13T13:50:42.097Z,68.11
2017-04-13T13:51:52.521Z,68.33
2017-04-13T13:53:02.646Z,67.85
2017-04-13T13:54:11.961Z,66.22
2017-04-13T13:55:21.216Z,65.65
2017-04-13T13:56:30.468Z,65.65
2017-04-13T13:57:39.390Z,64.69
2017-04-13T13:58:48.304Z,64.31
2017-04-13T13:59:57.692Z,64.98
2017-04-13T14:01:07.240Z,65.65
2017-04-13T14:02:16.162Z,65.65
2017-04-13T14:03:25.083Z,65.46
2017-04-13T14:04:34.345Z,66.89
2017-04-13T14:05:43.596Z,67.38
2017-04-13T14:06:52.875Z,65.94
2017-04-13T14:08:02.439Z,65.36
2017-04-13T14:09:11.355Z,65.46
2017-04-13T14:10:20.592Z,65.65
2017-04-13T14:11:29.521Z,65.65
2017-04-13T14:12:38.875Z,65.46
2017-04-13T14:13:48.234Z,65.91
2017-04-13T14:14:57.148Z,65.52
2017-04-13T14:16:06.090Z,66.67
2017-04-13T14:17:15.071Z,66
2017-04-13T14:37:57.448Z,64.25
2017-04-13T14:39:06.676Z,64.72
2017-04-13T14:40:15.910Z,63.67
2017-04-13T14:41:25.115Z,63.19
2017-04-13T14:42:34.344Z,63.39
2017-04-13T14:43:43.262Z,64.34
2017-04-13T14:44:51.851Z,64.05
2017-04-13T14:46:00.759Z,63.39
2017-04-13T14:47:10.634Z,64.05
2017-04-13T14:48:19.547Z,65.62
2017-04-13T14:49:28.450Z,64.37
2017-04-13T14:50:37.357Z,65.42
2017-04-13T14:51:46.902Z,65.52
2017-04-13T14:52:55.495Z,66.58
2017-04-13T14:54:04.730Z,66.86
2017-04-13T14:55:13.327Z,66.86
2017-04-13T14:56:22.236Z,66.86
2017-04-13T14:57:31.815Z,66.29
2017-04-13T14:58:41.056Z,66.93
2017-04-13T14:59:49.969Z,67.02
2017-04-13T15:00:58.560Z,67.41
2017-04-13T15:02:08.108Z,67.5
2017-04-13T15:03:16.704Z,66.83
2017-04-13T15:04:25.619Z,67.02
2017-04-13T15:05:34.222Z,66.16
2017-04-13T15:06:43.450Z,65.88
2017-04-13T15:07:52.356Z,66.45
2017-04-13T15:09:01.600Z,66.83
2017-04-13T15:10:10.825Z,67.6
2017-04-13T15:11:19.730Z,66.06
2017-04-13T15:12:28.964Z,64.72
2017-04-13T15:13:37.882Z,65.11